Time;durP1;ratioP1;P1;durP2;ratioP2;P2;SDS_P1;SDS_P2;PMS_P1;PMS_P2;Temp;Humidity;BMP_temperature;BMP_pressure;BME280_temperature;BME280_humidity;BME280_pressure;Samples;Min_cycle;Max_cycle;Signal;HPM_P1;HPM_P2
2022/03/26 00:00:16;;;;;;;21.50;12.98;;;10.10;33.60;;;;;;5052063;28;20680;-33
2022/03/26 00:02:43;;;;;;;19.20;10.90;;;10.10;33.00;;;;;;5052221;28;20190;-34
2022/03/26 00:05:09;;;;;;;21.52;12.05;;;10.10;33.00;;;;;;5052117;28;20165;-33
2022/03/26 00:07:35;;;;;;;22.35;13.82;;;10.00;33.10;;;;;;5050918;28;20181;-33
2022/03/26 00:10:02;;;;;;;16.47;10.53;;;10.00;32.80;;;;;;5050694;28;20212;-33
2022/03/26 00:12:28;;;;;;;15.00;10.88;;;10.00;33.10;;;;;;5052311;28;20226;-33
2022/03/26 00:14:54;;;;;;;11.17;9.13;;;10.00;33.30;;;;;;5051648;28;20168;-33
2022/03/26 00:17:19;;;;;;;20.63;12.13;;;10.00;33.20;;;;;;5052100;28;20651;-33
2022/03/26 00:19:45;;;;;;;19.60;10.33;;;9.90;33.10;;;;;;5051829;28;20196;-33
2022/03/26 00:22:11;;;;;;;15.37;10.57;;;9.90;33.40;;;;;;5051767;28;20178;-33
2022/03/26 00:24:37;;;;;;;21.97;11.17;;;9.90;33.10;;;;;;5042730;28;20192;-34
2022/03/26 00:27:03;;;;;;;25.05;9.55;;;9.90;33.10;;;;;;5052197;28;20529;-34
2022/03/26 00:29:28;;;;;;;22.97;12.67;;;9.80;33.10;;;;;;5051822;28;20215;-32
2022/03/26 00:31:54;;;;;;;16.63;10.50;;;9.80;33.50;;;;;;5052072;28;20465;-33
2022/03/26 00:34:20;;;;;;;15.77;10.40;;;9.80;33.10;;;;;;5051893;28;20165;-33
2022/03/26 00:36:46;;;;;;;18.60;11.43;;;9.80;33.60;;;;;;5051882;28;20245;-33
2022/03/26 00:39:11;;;;;;;18.97;10.37;;;9.70;33.80;;;;;;5051619;28;20223;-33
2022/03/26 00:41:37;;;;;;;12.70;8.67;;;9.70;33.50;;;;;;5051877;28;20180;-32
2022/03/26 00:44:03;;;;;;;13.80;8.00;;;9.70;33.80;;;;;;5051853;28;20173;-33
2022/03/26 00:46:29;;;;;;;17.95;10.30;;;9.70;33.70;;;;;;5051775;28;20649;-33
2022/03/26 00:48:58;;;;;;;18.50;10.13;;;9.70;33.40;;;;;;5051455;28;20196;-33
2022/03/26 00:51:24;;;;;;;13.35;8.52;;;9.60;33.60;;;;;;5051795;28;20173;-32
2022/03/26 00:53:50;;;;;;;19.60;10.33;;;9.70;33.80;;;;;;5051713;28;20184;-33
2022/03/26 00:56:16;;;;;;;23.13;9.07;;;9.60;33.80;;;;;;5051978;28;20196;-33
2022/03/26 00:58:42;;;;;;;17.80;11.10;;;9.60;33.80;;;;;;5051458;28;20435;-33
2022/03/26 01:01:07;;;;;;;19.10;10.23;;;9.60;33.70;;;;;;5051643;28;20503;-33
2022/03/26 01:03:36;;;;;;;18.33;10.93;;;9.60;33.60;;;;;;5051621;28;20187;-33
2022/03/26 01:06:03;;;;;;;17.98;9.35;;;9.70;33.80;;;;;;5051522;28;20522;-33
2022/03/26 01:08:29;;;;;;;15.60;9.45;;;9.60;33.90;;;;;;5051478;28;20177;-33
2022/03/26 01:10:55;;;;;;;20.05;9.82;;;9.60;34.10;;;;;;5051582;28;20188;-32
2022/03/26 01:13:23;;;;;;;20.77;11.47;;;9.60;33.80;;;;;;5051707;28;20219;-32
2022/03/26 01:15:48;;;;;;;17.77;10.13;;;9.60;34.00;;;;;;5051552;28;20400;-32
2022/03/26 01:18:14;;;;;;;21.60;12.13;;;9.60;34.10;;;;;;5051510;28;20228;-33
2022/03/26 01:20:40;;;;;;;26.47;12.40;;;9.60;34.00;;;;;;5051423;28;20554;-33
2022/03/26 01:23:05;;;;;;;13.83;9.40;;;9.60;33.90;;;;;;5051702;28;20181;-33
2022/03/26 01:25:31;;;;;;;17.17;10.00;;;9.60;33.90;;;;;;5051511;28;20275;-32
2022/03/26 01:27:57;;;;;;;28.43;14.33;;;9.60;34.10;;;;;;5054244;28;20183;-32
2022/03/26 01:30:24;;;;;;;16.70;10.73;;;9.50;33.90;;;;;;5054775;28;20288;-32
2022/03/26 01:32:50;;;;;;;21.10;11.02;;;9.50;33.90;;;;;;5055293;28;20220;-33
2022/03/26 01:35:16;;;;;;;15.07;8.43;;;9.50;34.00;;;;;;5054916;28;20537;-33
2022/03/26 01:37:42;;;;;;;15.40;9.40;;;9.50;34.10;;;;;;5054945;28;20627;-32
2022/03/26 01:40:08;;;;;;;10.13;8.10;;;9.50;34.20;;;;;;5054665;28;20196;-33
2022/03/26 01:42:34;;;;;;;13.20;11.30;;;9.50;34.60;;;;;;5055110;28;20187;-33
2022/03/26 01:45:00;;;;;;;11.57;9.23;;;9.40;34.30;;;;;;5055133;28;20220;-32
2022/03/26 01:47:26;;;;;;;17.58;9.65;;;9.40;34.50;;;;;;5054720;28;20408;-33
2022/03/26 01:49:52;;;;;;;21.97;11.10;;;9.40;34.40;;;;;;5054230;28;20211;-33
2022/03/26 01:52:18;;;;;;;17.07;10.47;;;9.30;34.60;;;;;;5054663;28;20170;-33
2022/03/26 01:54:44;;;;;;;11.25;8.93;;;9.30;34.30;;;;;;5054902;28;20165;-33
2022/03/26 01:57:11;;;;;;;16.07;7.90;;;9.30;34.50;;;;;;5054953;28;20173;-33
2022/03/26 01:59:41;;;;;;;17.98;10.90;;;9.30;34.30;;;;;;5054248;28;20201;-33
2022/03/26 02:02:07;;;;;;;14.07;7.90;;;9.30;34.60;;;;;;5054733;28;20263;-33
2022/03/26 02:04:36;;;;;;;20.60;8.43;;;9.30;34.60;;;;;;5054658;28;20264;-33
2022/03/26 02:07:02;;;;;;;16.42;8.50;;;9.20;34.70;;;;;;5054379;28;20652;-33
2022/03/26 02:09:35;;;;;;;19.42;9.45;;;9.20;34.40;;;;;;5054252;28;20219;-32
2022/03/26 02:12:02;;;;;;;12.93;7.43;;;9.20;34.60;;;;;;5054449;28;20183;-32
2022/03/26 02:14:28;;;;;;;13.25;7.95;;;9.20;35.00;;;;;;5054614;28;20178;-33
2022/03/26 02:16:53;;;;;;;18.30;11.20;;;9.20;34.50;;;;;;5054089;28;20219;-33
2022/03/26 02:19:20;;;;;;;15.30;8.43;;;9.10;34.60;;;;;;5054139;28;20195;-33
2022/03/26 02:21:49;;;;;;;13.30;8.98;;;9.10;34.50;;;;;;5054231;28;20169;-33
2022/03/26 02:24:16;;;;;;;18.50;8.75;;;9.10;34.60;;;;;;5054152;28;20205;-32
2022/03/26 02:26:42;;;;;;;20.70;10.55;;;9.00;34.80;;;;;;5054110;28;20222;-33
2022/03/26 02:29:12;;;;;;;18.20;10.25;;;9.00;34.90;;;;;;5053629;28;20567;-32
2022/03/26 02:31:39;;;;;;;19.23;9.40;;;9.00;34.70;;;;;;5053921;28;20158;-32
2022/03/26 02:34:06;;;;;;;13.60;8.73;;;9.00;34.70;;;;;;5053896;28;20177;-33
2022/03/26 02:36:32;;;;;;;14.75;8.02;;;8.90;34.90;;;;;;5053887;28;20176;-33
2022/03/26 02:38:58;;;;;;;17.33;9.55;;;8.90;34.90;;;;;;5053107;28;20231;-32
2022/03/26 02:41:24;;;;;;;14.83;10.07;;;8.90;34.90;;;;;;5053838;28;20262;-33
2022/03/26 02:43:50;;;;;;;17.20;8.40;;;8.90;35.20;;;;;;5054544;28;20405;-33
2022/03/26 02:46:15;;;;;;;12.97;8.40;;;8.80;35.10;;;;;;5052053;28;20948;-32
2022/03/26 02:48:44;;;;;;;18.63;8.97;;;8.80;35.20;;;;;;5045091;28;20178;-33
2022/03/26 02:51:10;;;;;;;18.27;9.05;;;8.80;35.30;;;;;;5053476;28;20199;-32
2022/03/26 02:53:35;;;;;;;12.65;7.53;;;8.70;36.00;;;;;;5053548;28;20171;-33
2022/03/26 02:56:01;;;;;;;23.87;9.97;;;8.70;35.50;;;;;;5053643;28;20166;-33
2022/03/26 02:58:27;;;;;;;18.97;10.00;;;8.70;35.40;;;;;;5053400;28;20208;-33
2022/03/26 03:00:53;;;;;;;12.50;8.17;;;8.70;35.70;;;;;;5053338;28;20806;-33
2022/03/26 03:03:19;;;;;;;16.50;8.30;;;8.60;35.40;;;;;;5053253;28;20222;-33
2022/03/26 03:05:48;;;;;;;18.38;8.90;;;8.60;35.50;;;;;;5053629;28;20189;-33
2022/03/26 03:08:15;;;;;;;16.92;9.25;;;8.60;35.70;;;;;;5053419;28;20188;-33
2022/03/26 03:10:43;;;;;;;14.13;8.25;;;8.60;35.90;;;;;;5052970;28;20208;-33
2022/03/26 03:13:10;;;;;;;13.40;8.20;;;8.60;35.80;;;;;;5053105;28;20673;-33
2022/03/26 03:15:37;;;;;;;13.85;7.85;;;8.50;36.10;;;;;;5053393;28;20169;-33
2022/03/26 03:18:03;;;;;;;13.90;8.30;;;8.50;36.00;;;;;;5053153;28;20174;-32
2022/03/26 03:20:29;;;;;;;14.57;9.77;;;8.50;36.00;;;;;;5052936;28;20197;-33
2022/03/26 03:22:59;;;;;;;16.83;8.52;;;8.50;36.00;;;;;;5052969;28;20407;-33
2022/03/26 03:25:26;;;;;;;11.45;6.65;;;8.50;35.90;;;;;;5053025;28;20200;-33
2022/03/26 03:27:52;;;;;;;16.40;7.10;;;8.50;36.00;;;;;;5053088;28;20181;-33
2022/03/26 03:30:18;;;;;;;13.48;8.57;;;8.40;36.00;;;;;;5052749;28;20225;-33
2022/03/26 03:32:44;;;;;;;27.23;11.10;;;8.50;36.00;;;;;;5052851;28;20215;-33
2022/03/26 03:35:10;;;;;;;18.42;8.90;;;8.40;35.70;;;;;;5052687;28;20996;-33
2022/03/26 03:37:38;;;;;;;16.63;7.43;;;8.40;35.80;;;;;;5052741;28;20245;-33
2022/03/26 03:40:06;;;;;;;16.40;9.10;;;8.40;35.80;;;;;;5052362;28;20211;-33
2022/03/26 03:42:31;;;;;;;13.68;8.35;;;8.40;35.90;;;;;;5052604;28;20525;-32
2022/03/26 03:44:57;;;;;;;13.03;8.03;;;8.40;35.70;;;;;;5052581;28;20178;-33
2022/03/26 03:47:24;;;;;;;14.13;7.40;;;8.30;35.90;;;;;;5052749;28;20596;-33
2022/03/26 03:49:50;;;;;;;15.50;8.10;;;8.30;35.70;;;;;;5051394;28;20467;-33
2022/03/26 03:52:16;;;;;;;16.40;10.20;;;8.30;36.00;;;;;;5052582;28;20183;-33
2022/03/26 03:54:41;;;;;;;16.03;8.83;;;8.30;36.00;;;;;;5052404;28;20173;-33
2022/03/26 03:57:07;;;;;;;19.70;9.07;;;8.30;35.70;;;;;;5052263;28;20782;-33
2022/03/26 03:59:33;;;;;;;12.50;8.10;;;8.20;35.50;;;;;;5052211;28;20420;-33
2022/03/26 04:01:59;;;;;;;19.57;8.30;;;8.30;35.70;;;;;;5052442;28;20197;-33
2022/03/26 04:04:24;;;;;;;17.27;9.10;;;8.20;35.60;;;;;;5052325;28;20182;-33
2022/03/26 04:06:50;;;;;;;10.90;6.10;;;8.20;35.80;;;;;;5052513;28;20173;-33
2022/03/26 04:09:16;;;;;;;12.90;6.20;;;8.20;35.90;;;;;;5052110;28;20205;-33
2022/03/26 04:11:41;;;;;;;12.23;7.83;;;8.10;36.10;;;;;;5052479;28;20624;-33
2022/03/26 04:14:07;;;;;;;16.80;9.87;;;8.10;36.20;;;;;;5052079;28;20639;-33
2022/03/26 04:16:33;;;;;;;17.50;7.77;;;8.00;36.10;;;;;;5052242;28;20172;-33
2022/03/26 04:18:59;;;;;;;14.27;7.40;;;8.00;36.10;;;;;;5051762;28;20408;-33
2022/03/26 04:21:26;;;;;;;18.27;8.77;;;7.90;36.10;;;;;;5052104;28;20180;-33
2022/03/26 04:23:51;;;;;;;17.92;7.20;;;7.90;36.50;;;;;;5050792;28;20230;-33
2022/03/26 04:26:17;;;;;;;12.90;7.47;;;7.80;36.40;;;;;;5052004;28;20180;-33
2022/03/26 04:28:43;;;;;;;15.30;8.20;;;7.80;36.50;;;;;;5051624;28;20420;-33
2022/03/26 04:31:09;;;;;;;16.77;8.50;;;7.80;36.40;;;;;;5052067;28;20271;-33
2022/03/26 04:33:35;;;;;;;17.47;8.37;;;7.70;36.40;;;;;;5052018;28;20401;-33
2022/03/26 04:36:02;;;;;;;13.25;8.00;;;7.70;36.50;;;;;;5051967;28;20500;-33
2022/03/26 04:38:27;;;;;;;13.25;7.70;;;7.70;36.40;;;;;;5051849;28;20244;-33
2022/03/26 04:40:53;;;;;;;26.53;9.47;;;7.60;36.10;;;;;;5051613;28;20303;-33
2022/03/26 04:43:20;;;;;;;16.20;8.50;;;7.60;35.90;;;;;;5051758;28;20396;-33
2022/03/26 04:45:46;;;;;;;11.55;7.35;;;7.60;36.00;;;;;;5052125;28;20181;-32
2022/03/26 04:48:13;;;;;;;11.70;6.87;;;7.60;35.80;;;;;;5052030;28;20277;-33
2022/03/26 04:50:39;;;;;;;8.45;6.13;;;7.50;35.80;;;;;;5051317;28;20218;-33
2022/03/26 04:53:05;;;;;;;10.35;6.07;;;7.50;36.10;;;;;;5051716;28;20173;-33
2022/03/26 04:55:31;;;;;;;10.53;7.67;;;7.50;35.80;;;;;;5051733;28;20217;-33
2022/03/26 04:57:56;;;;;;;11.30;7.47;;;7.40;35.90;;;;;;5051597;28;20177;-33
2022/03/26 05:00:22;;;;;;;17.13;7.13;;;7.40;35.90;;;;;;5051817;28;20190;-33
2022/03/26 05:02:48;;;;;;;12.53;6.90;;;7.30;36.00;;;;;;5055593;28;20183;-34
2022/03/26 05:05:15;;;;;;;13.50;7.50;;;7.30;36.70;;;;;;5055530;28;20820;-33
2022/03/26 05:07:48;;;;;;;18.38;6.07;;;7.20;36.80;;;;;;5055664;28;20225;-33
2022/03/26 05:10:23;;;;;;;15.55;7.32;;;7.20;36.70;;;;;;5048103;28;20277;-33
2022/03/26 05:12:51;;;;;;;11.48;4.82;;;7.20;36.40;;;;;;5054373;28;20176;-33
2022/03/26 05:15:18;;;;;;;12.93;7.47;;;7.20;36.60;;;;;;5055399;28;20173;-33
2022/03/26 05:17:44;;;;;;;14.15;8.25;;;7.20;36.60;;;;;;5055615;28;20177;-33
2022/03/26 05:20:14;;;;;;;13.25;8.00;;;7.20;36.70;;;;;;5055023;28;20186;-33
2022/03/26 05:22:45;;;;;;;13.52;7.13;;;7.30;36.70;;;;;;5055508;28;20186;-33
2022/03/26 05:25:12;;;;;;;13.23;8.68;;;7.30;36.60;;;;;;5055257;28;20153;-33
2022/03/26 05:27:38;;;;;;;17.27;7.32;;;7.30;36.50;;;;;;5055103;28;20275;-33
2022/03/26 05:30:05;;;;;;;14.77;6.63;;;7.30;36.70;;;;;;5054744;28;20673;-33
2022/03/26 05:32:31;;;;;;;13.93;7.28;;;7.30;37.00;;;;;;5055081;28;20664;-33
2022/03/26 05:34:57;;;;;;;14.27;6.80;;;7.40;36.80;;;;;;5054983;28;20162;-33
2022/03/26 05:37:22;;;;;;;20.10;9.83;;;7.40;36.90;;;;;;5054995;28;20177;-33
2022/03/26 05:39:49;;;;;;;11.23;6.60;;;7.50;37.10;;;;;;5054688;28;20432;-32
2022/03/26 05:42:15;;;;;;;16.05;7.25;;;7.50;37.60;;;;;;5054881;28;20276;-32
2022/03/26 05:44:41;;;;;;;14.05;7.47;;;7.60;37.10;;;;;;5054856;28;20174;-33
2022/03/26 05:47:07;;;;;;;12.60;7.17;;;7.70;37.10;;;;;;5054884;28;20185;-33
2022/03/26 05:49:33;;;;;;;16.20;8.68;;;7.80;37.10;;;;;;5053150;28;20745;-33
2022/03/26 05:51:59;;;;;;;14.80;7.93;;;7.90;37.30;;;;;;5046148;28;20585;-33
2022/03/26 05:54:24;;;;;;;18.13;7.60;;;8.00;37.90;;;;;;5054661;28;20170;-33
2022/03/26 05:56:53;;;;;;;11.80;6.77;;;8.10;37.60;;;;;;5054597;28;20165;-33
2022/03/26 05:59:23;;;;;;;13.80;7.90;;;8.10;37.70;;;;;;5054306;28;20190;-33
2022/03/26 06:01:49;;;;;;;15.75;8.23;;;8.20;37.30;;;;;;5054569;28;20181;-33
2022/03/26 06:04:16;;;;;;;16.00;9.88;;;8.30;37.30;;;;;;5045802;28;20181;-33
2022/03/26 06:06:42;;;;;;;15.15;9.40;;;8.40;37.10;;;;;;5054708;28;20185;-34
2022/03/26 06:09:08;;;;;;;18.92;8.90;;;8.60;36.90;;;;;;5054043;28;20227;-32
2022/03/26 06:11:34;;;;;;;15.82;7.22;;;8.70;36.80;;;;;;5054276;28;20197;-33
2022/03/26 06:14:00;;;;;;;17.00;9.47;;;8.80;36.80;;;;;;5053502;28;20503;-33
2022/03/26 06:16:26;;;;;;;19.33;10.57;;;8.90;37.30;;;;;;5054247;28;20169;-33
2022/03/26 06:18:52;;;;;;;18.20;10.00;;;9.00;36.80;;;;;;5054255;28;20628;-33
2022/03/26 06:21:18;;;;;;;15.57;8.10;;;9.10;36.90;;;;;;5054322;28;20424;-33
2022/03/26 06:23:44;;;;;;;18.07;9.03;;;9.20;36.80;;;;;;5054167;28;20910;-33
2022/03/26 06:26:10;;;;;;;15.43;10.00;;;9.30;36.80;;;;;;5053937;28;20915;-33
2022/03/26 06:28:37;;;;;;;20.50;9.93;;;9.40;36.90;;;;;;5053813;28;20178;-33
2022/03/26 06:31:03;;;;;;;20.05;10.23;;;9.50;37.30;;;;;;5053777;28;20291;-34
2022/03/26 06:33:29;;;;;;;13.93;8.15;;;9.50;36.80;;;;;;5054007;28;20252;-33
2022/03/26 06:35:55;;;;;;;25.40;13.25;;;9.60;36.70;;;;;;5053922;28;20161;-33
2022/03/26 06:38:21;;;;;;;16.30;9.87;;;9.70;37.50;;;;;;5053840;28;20174;-33
2022/03/26 06:40:48;;;;;;;15.30;10.25;;;9.80;37.20;;;;;;5053460;28;20970;-33
2022/03/26 06:43:14;;;;;;;22.88;12.50;;;9.90;37.10;;;;;;5053828;28;20259;-34
2022/03/26 06:45:40;;;;;;;13.33;8.93;;;10.00;36.80;;;;;;5053676;28;20597;-33
2022/03/26 06:48:07;;;;;;;17.50;8.93;;;10.10;36.50;;;;;;5053921;28;20409;-34
2022/03/26 06:50:33;;;;;;;19.58;10.80;;;10.30;36.70;;;;;;5053198;28;20705;-33
2022/03/26 06:52:59;;;;;;;19.03;8.80;;;10.40;36.60;;;;;;5053777;28;20204;-33
2022/03/26 06:55:26;;;;;;;24.92;13.23;;;10.40;36.00;;;;;;5053574;28;20486;-34
2022/03/26 06:57:52;;;;;;;17.38;10.63;;;10.60;35.90;;;;;;5053553;28;20176;-33
2022/03/26 07:00:18;;;;;;;23.83;9.00;;;10.70;35.90;;;;;;5053049;28;20585;-33
2022/03/26 07:02:44;;;;;;;19.73;9.60;;;10.80;36.00;;;;;;5053353;28;20181;-34
2022/03/26 07:05:11;;;;;;;18.45;9.55;;;11.00;35.60;;;;;;5053340;28;20168;-33
2022/03/26 07:07:37;;;;;;;19.45;11.30;;;11.10;35.50;;;;;;5053360;28;20537;-34
2022/03/26 07:10:05;;;;;;;15.43;9.43;;;11.30;35.60;;;;;;5053092;28;20205;-34
2022/03/26 07:12:31;;;;;;;18.90;8.82;;;11.40;35.40;;;;;;5053208;28;20399;-33
2022/03/26 07:14:57;;;;;;;18.97;9.50;;;11.60;35.10;;;;;;5053101;28;20176;-33
2022/03/26 07:17:23;;;;;;;24.27;11.82;;;11.70;35.00;;;;;;5053117;28;20414;-34
2022/03/26 07:19:51;;;;;;;19.70;10.55;;;11.90;34.80;;;;;;5052731;28;20200;-34
2022/03/26 07:22:17;;;;;;;22.65;11.00;;;12.00;34.50;;;;;;5053020;28;20231;-33
2022/03/26 07:24:43;;;;;;;15.18;10.35;;;12.10;34.60;;;;;;5052884;28;20227;-33
2022/03/26 07:27:09;;;;;;;15.03;9.60;;;12.30;34.40;;;;;;5053217;28;20221;-33
2022/03/26 07:29:35;;;;;;;14.20;10.05;;;12.40;34.20;;;;;;5052426;28;20852;-33
2022/03/26 07:32:01;;;;;;;16.85;9.73;;;12.60;34.20;;;;;;5052754;28;20584;-34
2022/03/26 07:34:27;;;;;;;20.43;9.07;;;12.80;34.20;;;;;;5052794;28;20165;-33
2022/03/26 07:36:53;;;;;;;20.83;10.67;;;13.00;34.10;;;;;;5053065;28;20779;-34
2022/03/26 07:39:19;;;;;;;21.02;9.25;;;13.20;33.70;;;;;;5052657;28;20200;-34
2022/03/26 07:41:45;;;;;;;14.87;9.73;;;13.30;33.50;;;;;;5052662;28;20172;-34
2022/03/26 07:44:11;;;;;;;17.92;11.63;;;13.40;33.40;;;;;;5052560;28;20414;-33
2022/03/26 07:46:37;;;;;;;21.88;10.85;;;13.60;33.30;;;;;;5052535;28;20180;-33
2022/03/26 07:49:03;;;;;;;21.90;11.77;;;13.80;33.20;;;;;;5047635;28;20202;-33
2022/03/26 07:51:28;;;;;;;16.05;9.93;;;14.00;33.00;;;;;;5048482;28;20200;-34
2022/03/26 07:53:54;;;;;;;18.70;10.97;;;14.10;32.90;;;;;;5052484;28;20197;-33
2022/03/26 07:56:20;;;;;;;17.87;9.37;;;14.40;32.80;;;;;;5052463;28;20580;-34
2022/03/26 07:58:47;;;;;;;24.03;12.23;;;14.50;32.20;;;;;;5052454;28;20169;-33
2022/03/26 08:01:13;;;;;;;31.08;11.32;;;14.60;31.50;;;;;;5052272;28;20216;-33
2022/03/26 08:03:38;;;;;;;28.17;11.37;;;14.70;31.80;;;;;;5052343;28;20205;-34
2022/03/26 08:06:04;;;;;;;16.20;9.23;;;14.80;31.40;;;;;;5052328;28;20162;-34
2022/03/26 08:08:30;;;;;;;17.17;10.03;;;14.80;31.10;;;;;;5052430;28;20173;-33
2022/03/26 08:10:55;;;;;;;22.37;10.33;;;15.00;31.40;;;;;;5052132;28;20569;-34
2022/03/26 08:13:21;;;;;;;17.70;10.37;;;15.20;31.80;;;;;;5052476;28;20223;-34
2022/03/26 08:15:47;;;;;;;17.53;10.33;;;15.40;31.70;;;;;;5052170;28;20192;-33
2022/03/26 08:18:14;;;;;;;20.50;10.37;;;15.60;31.70;;;;;;5052041;28;20219;-33
2022/03/26 08:20:39;;;;;;;18.83;12.57;;;15.70;31.50;;;;;;5051933;28;20424;-34
2022/03/26 08:23:05;;;;;;;19.03;11.23;;;15.90;32.50;;;;;;5052054;28;20223;-33
2022/03/26 08:28:16;;;;;;;18.65;10.68;;;16.30;31.20;;;;;;5052035;28;20181;-34
2022/03/26 08:30:42;;;;;;;16.73;9.52;;;16.50;31.00;;;;;;5051559;28;20766;-33
2022/03/26 08:33:08;;;;;;;16.77;10.47;;;16.60;30.90;;;;;;5051847;28;20189;-33
2022/03/26 08:35:35;;;;;;;18.83;9.07;;;16.90;30.90;;;;;;5053930;28;20265;-34
2022/03/26 08:38:01;;;;;;;19.90;10.93;;;17.10;30.60;;;;;;5058414;28;20177;-33
2022/03/26 08:40:27;;;;;;;24.37;11.30;;;17.30;30.40;;;;;;5058237;28;20603;-33
2022/03/26 08:42:53;;;;;;;18.70;10.30;;;17.40;29.40;;;;;;5058434;28;20486;-33
2022/03/26 08:45:19;;;;;;;19.60;10.93;;;17.50;28.60;;;;;;5058573;28;20457;-34
2022/03/26 08:47:48;;;;;;;18.10;10.83;;;17.60;29.30;;;;;;5058733;28;20925;-33
2022/03/26 08:50:13;;;;;;;22.83;10.15;;;17.70;28.60;;;;;;5057911;28;21005;-34
2022/03/26 08:52:39;;;;;;;22.90;12.13;;;17.60;28.00;;;;;;5058179;28;20174;-33
2022/03/26 08:55:06;;;;;;;18.20;10.43;;;17.50;28.90;;;;;;5058331;28;20169;-33
2022/03/26 08:57:32;;;;;;;21.40;12.23;;;17.80;29.50;;;;;;5058644;28;20177;-33
2022/03/26 08:59:58;;;;;;;25.80;9.93;;;18.10;29.00;;;;;;5058025;28;20206;-33
2022/03/26 09:02:23;;;;;;;20.53;10.30;;;18.40;28.60;;;;;;5058488;28;20179;-33
2022/03/26 09:04:49;;;;;;;17.17;9.37;;;18.60;27.50;;;;;;5058618;28;20200;-33
2022/03/26 09:07:15;;;;;;;16.60;9.53;;;18.80;27.30;;;;;;5058221;28;20471;-33
2022/03/26 09:09:41;;;;;;;17.93;10.27;;;18.80;27.10;;;;;;5058046;28;20495;-33
2022/03/26 09:12:07;;;;;;;22.40;11.93;;;18.90;26.90;;;;;;5058267;28;20166;-33
2022/03/26 09:14:33;;;;;;;17.05;11.02;;;19.00;27.00;;;;;;5058178;28;20438;-33
2022/03/26 09:16:59;;;;;;;22.37;11.33;;;18.70;26.10;;;;;;5058192;28;20208;-33
2022/03/26 09:19:25;;;;;;;18.15;10.43;;;18.60;26.70;;;;;;5058093;28;20298;-34
2022/03/26 09:21:51;;;;;;;19.33;11.20;;;18.70;27.70;;;;;;5058008;28;20640;-34
2022/03/26 09:24:17;;;;;;;20.53;11.77;;;18.80;27.50;;;;;;5058045;28;20184;-34
2022/03/26 09:26:44;;;;;;;27.77;11.32;;;18.70;26.90;;;;;;5057958;28;20451;-33
2022/03/26 09:29:10;;;;;;;18.83;10.70;;;18.70;27.10;;;;;;5057962;28;20201;-34
2022/03/26 09:31:36;;;;;;;15.77;11.53;;;19.00;26.00;;;;;;5058036;28;20633;-33
2022/03/26 09:34:01;;;;;;;18.10;10.60;;;19.10;27.30;;;;;;5058035;28;20173;-34
2022/03/26 09:36:27;;;;;;;19.40;12.17;;;19.30;26.00;;;;;;5057858;28;20161;-34
2022/03/26 09:38:53;;;;;;;23.37;12.50;;;19.40;27.10;;;;;;5057708;28;20223;-34
2022/03/26 09:41:22;;;;;;;23.50;10.40;;;19.70;26.10;;;;;;5057986;28;20165;-34
2022/03/26 09:43:48;;;;;;;19.25;10.50;;;19.80;25.20;;;;;;5057977;28;20172;-33
2022/03/26 09:46:14;;;;;;;22.38;11.57;;;19.90;26.00;;;;;;5057992;28;20620;-34
2022/03/26 09:48:40;;;;;;;17.10;9.13;;;20.10;25.60;;;;;;5053229;28;20185;-34
2022/03/26 09:51:08;;;;;;;17.30;9.77;;;20.20;25.20;;;;;;5054340;28;20496;-34
2022/03/26 09:53:34;;;;;;;21.48;10.90;;;20.20;24.60;;;;;;5054744;28;20414;-34
2022/03/26 09:56:00;;;;;;;17.75;10.40;;;20.10;23.40;;;;;;5054512;28;20181;-34
2022/03/26 09:58:26;;;;;;;15.83;9.67;;;20.00;25.40;;;;;;5046090;28;20675;-34
2022/03/26 10:00:55;;;;;;;19.80;11.50;;;20.10;24.30;;;;;;5054203;28;20427;-34
2022/03/26 10:03:21;;;;;;;20.33;11.40;;;20.20;25.00;;;;;;5054425;28;20411;-33
2022/03/26 10:05:46;;;;;;;18.20;9.60;;;20.40;24.90;;;;;;5054562;28;20173;-34
2022/03/26 10:08:23;;;;;;;19.43;10.20;;;20.70;24.40;;;;;;5054353;28;20612;-34
2022/03/26 10:10:50;;;;;;;24.25;11.07;;;20.90;25.00;;;;;;5054449;28;20300;-34
2022/03/26 10:13:35;;;;;;;18.40;10.68;;;21.00;24.80;;;;;;5054463;28;20547;-34
2022/03/26 10:16:06;;;;;;;17.42;8.65;;;21.30;24.90;;;;;;5054216;28;20173;-34
2022/03/26 10:18:43;;;;;;;26.83;12.93;;;21.20;24.80;;;;;;5054105;28;20177;-34
2022/03/26 10:21:14;;;;;;;20.00;11.98;;;21.30;23.50;;;;;;5054220;28;20297;-34
2022/03/26 10:23:49;;;;;;;17.58;10.13;;;21.30;24.90;;;;;;5054073;28;20691;-34
2022/03/26 10:26:14;;;;;;;13.73;8.93;;;21.60;23.90;;;;;;5054012;28;20172;-35
2022/03/26 10:28:42;;;;;;;18.30;10.03;;;21.70;24.30;;;;;;5053844;28;20656;-35
2022/03/26 10:34:06;;;;;;;16.70;10.30;;;21.70;23.20;;;;;;5053877;28;20208;-33
2022/03/26 10:36:35;;;;;;;17.42;10.20;;;21.50;23.60;;;;;;5054358;28;20165;-34
2022/03/26 10:39:00;;;;;;;18.40;9.93;;;21.30;23.80;;;;;;5053507;28;20188;-34
2022/03/26 10:41:30;;;;;;;10.63;6.90;;;21.30;24.30;;;;;;5053980;28;20169;-34
2022/03/26 10:44:11;;;;;;;11.98;8.35;;;21.40;23.90;;;;;;5053744;28;20161;-34
2022/03/26 10:47:04;;;;;;;27.67;13.00;;;21.50;24.70;;;;;;5053999;28;20162;-34
2022/03/26 10:49:40;;;;;;;18.83;11.15;;;21.90;24.60;;;;;;5053074;28;20216;-34
2022/03/26 10:52:15;;;;;;;22.50;13.73;;;22.30;23.70;;;;;;5054445;28;20241;-34
2022/03/26 10:54:41;;;;;;;19.38;8.77;;;22.40;23.00;;;;;;5054371;28;20570;-35
2022/03/26 10:57:08;;;;;;;18.27;9.70;;;22.40;23.30;;;;;;5054114;28;20199;-34
2022/03/26 10:59:34;;;;;;;14.73;9.25;;;22.50;23.50;;;;;;5053163;28;20423;-34
2022/03/26 11:02:01;;;;;;;14.20;7.90;;;22.60;23.00;;;;;;5053942;28;20264;-35
2022/03/26 11:04:28;;;;;;;11.60;9.68;;;22.70;23.80;;;;;;5053427;28;20177;-34
2022/03/26 11:06:54;;;;;;;13.10;8.50;;;23.00;22.60;;;;;;5053737;28;20538;-35
2022/03/26 11:09:20;;;;;;;10.57;8.07;;;22.90;23.40;;;;;;5052973;28;20466;-34
2022/03/26 11:11:49;;;;;;;10.23;6.60;;;23.10;23.80;;;;;;5053082;28;20165;-35
2022/03/26 11:14:20;;;;;;;9.27;7.07;;;23.40;23.80;;;;;;5053179;28;20408;-34
2022/03/26 11:17:04;;;;;;;8.93;6.50;;;23.60;22.60;;;;;;5053012;28;20392;-35
2022/03/26 11:19:48;;;;;;;16.27;9.47;;;23.50;21.90;;;;;;5052554;28;20637;-34
2022/03/26 11:22:30;;;;;;;13.73;8.77;;;23.20;22.70;;;;;;5053223;28;20420;-35
2022/03/26 11:25:32;;;;;;;14.15;8.60;;;23.20;22.20;;;;;;5052964;28;20990;-35
2022/03/26 11:28:43;;;;;;;10.07;7.07;;;23.10;22.60;;;;;;5052861;28;20195;-34
2022/03/26 11:31:14;;;;;;;12.33;7.07;;;23.00;23.30;;;;;;5050383;28;20217;-35
2022/03/26 11:33:40;;;;;;;10.80;6.50;;;22.90;23.40;;;;;;5052707;28;20916;-35
2022/03/26 11:36:10;;;;;;;8.53;6.47;;;23.20;23.00;;;;;;5052702;28;20416;-35
2022/03/26 11:38:37;;;;;;;11.17;6.60;;;23.40;23.50;;;;;;5052570;28;20621;-35
2022/03/26 11:41:05;;;;;;;11.97;9.07;;;23.50;23.00;;;;;;5052530;28;20443;-35
2022/03/26 11:43:42;;;;;;;10.43;6.70;;;23.50;23.10;;;;;;5052839;28;20408;-35
2022/03/26 11:51:57;;;;;;;21.73;14.43;;;23.40;22.20;;;;;;5052675;28;20419;-34
2022/03/26 11:54:23;;;;;;;7.97;5.80;;;23.40;22.10;;;;;;5052263;28;20392;-34
2022/03/26 11:57:09;;;;;;;9.27;6.17;;;23.50;23.00;;;;;;5052290;28;20411;-35
2022/03/26 11:59:39;;;;;;;10.97;7.07;;;24.00;23.30;;;;;;5051832;28;20461;-35
2022/03/26 12:02:18;;;;;;;5.93;5.33;;;24.20;21.90;;;;;;5052153;28;20404;-34
2022/03/26 12:04:50;;;;;;;12.17;7.63;;;24.30;22.00;;;;;;5052077;28;20396;-35
2022/03/26 12:07:16;;;;;;;7.43;5.60;;;24.50;21.40;;;;;;5052205;28;20985;-34
2022/03/26 12:09:42;;;;;;;9.70;5.87;;;24.40;21.70;;;;;;5051317;28;20508;-34
2022/03/26 12:12:12;;;;;;;46.80;32.13;;;24.30;21.80;;;;;;5051536;28;20510;-35
2022/03/26 12:15:04;;;;;;;13.10;6.40;;;24.10;22.10;;;;;;5052271;28;20461;-34
2022/03/26 12:18:06;;;;;;;8.07;5.37;;;24.40;22.30;;;;;;5046256;28;20910;-35
2022/03/26 12:20:43;;;;;;;12.20;7.33;;;24.60;20.60;;;;;;5038200;28;20442;-34
2022/03/26 12:23:13;;;;;;;9.50;6.00;;;24.00;20.90;;;;;;5051786;28;20407;-34
2022/03/26 12:25:46;;;;;;;11.03;7.37;;;23.90;22.10;;;;;;5052133;28;20400;-35
2022/03/26 12:28:35;;;;;;;11.00;7.23;;;23.90;22.60;;;;;;5051785;28;20388;-34
2022/03/26 12:31:04;;;;;;;17.87;8.70;;;23.80;20.80;;;;;;5051489;28;20522;-34
2022/03/26 12:33:53;;;;;;;10.37;6.80;;;23.70;22.20;;;;;;5051613;28;20408;-35
2022/03/26 12:36:21;;;;;;;12.30;6.63;;;23.90;20.80;;;;;;5051876;28;20392;-34
2022/03/26 12:38:48;;;;;;;8.53;6.00;;;24.00;21.60;;;;;;5051518;28;20473;-34
2022/03/26 12:41:15;;;;;;;11.30;6.20;;;24.30;22.90;;;;;;5051592;28;20477;-34
2022/03/26 12:43:41;;;;;;;12.43;6.50;;;24.50;21.50;;;;;;5051729;28;20494;-35
2022/03/26 12:46:10;;;;;;;10.17;6.40;;;24.60;21.10;;;;;;5051576;28;20511;-34
2022/03/26 12:48:36;;;;;;;8.57;6.20;;;24.40;21.40;;;;;;5051449;28;20442;-34
2022/03/26 12:51:05;;;;;;;19.53;8.07;;;24.60;21.40;;;;;;5051387;28;20487;-34